Time;durP1;ratioP1;P1;durP2;ratioP2;P2;SDS_P1;SDS_P2;PMS_P1;PMS_P2;Temp;Humidity;BMP_temperature;BMP_pressure;BME280_temperature;BME280_humidity;BME280_pressure;Samples;Min_cycle;Max_cycle;Signal;HPM_P1;HPM_P2
2023/12/23 00:00:01;;;;;;;12.48;1.50;;;8.80;99.90;;;;;;5048041;28;20037;-77
2023/12/23 00:02:26;;;;;;;13.57;1.77;;;8.80;99.90;;;;;;5049433;28;20499;-77
2023/12/23 00:04:52;;;;;;;10.75;0.85;;;8.70;99.90;;;;;;5049179;28;20030;-78
2023/12/23 00:07:17;;;;;;;7.88;0.82;;;8.80;99.90;;;;;;5052872;28;20061;-77
2023/12/23 00:09:43;;;;;;;12.13;1.50;;;8.70;99.90;;;;;;5052212;28;20032;-77
2023/12/23 00:12:09;;;;;;;9.30;0.77;;;8.70;99.90;;;;;;5047292;28;20076;-76
2023/12/23 00:14:35;;;;;;;12.23;1.00;;;8.70;99.90;;;;;;5046233;28;20029;-77
2023/12/23 00:17:01;;;;;;;12.20;1.17;;;8.70;99.90;;;;;;5046505;28;20034;-77
2023/12/23 00:19:26;;;;;;;11.73;1.15;;;8.70;99.90;;;;;;5045474;28;20033;-77
2023/12/23 00:21:52;;;;;;;12.65;1.20;;;8.70;99.90;;;;;;5046076;28;20038;-77
2023/12/23 00:24:18;;;;;;;13.30;1.27;;;8.70;99.90;;;;;;5044161;28;20026;-77
2023/12/23 00:26:44;;;;;;;15.98;1.20;;;8.80;99.90;;;;;;5041667;28;20056;-77
2023/12/23 00:29:09;;;;;;;10.02;1.35;;;8.80;99.90;;;;;;5041306;28;20025;-77
2023/12/23 00:31:35;;;;;;;7.55;0.90;;;8.70;99.90;;;;;;5039211;28;20125;-77
2023/12/23 00:34:00;;;;;;;9.40;0.80;;;8.70;99.90;;;;;;5041915;28;20034;-77
2023/12/23 00:36:26;;;;;;;11.02;0.90;;;8.80;99.90;;;;;;5041393;28;20060;-78
2023/12/23 00:38:52;;;;;;;10.63;1.17;;;8.80;99.90;;;;;;5040782;28;20514;-77
2023/12/23 00:41:18;;;;;;;8.73;0.77;;;8.80;99.90;;;;;;5042593;28;20521;-77
2023/12/23 00:43:43;;;;;;;9.65;0.80;;;8.80;99.90;;;;;;5039423;28;20033;-77
2023/12/23 00:46:09;;;;;;;15.98;1.27;;;8.80;99.90;;;;;;5040191;28;20406;-77
2023/12/23 00:48:35;;;;;;;15.63;1.30;;;8.80;99.90;;;;;;5039982;28;20076;-78
2023/12/23 00:51:00;;;;;;;10.30;0.75;;;8.80;99.90;;;;;;5037902;28;20533;-76
2023/12/23 00:53:26;;;;;;;14.25;1.10;;;8.80;99.90;;;;;;5038453;28;20075;-76
2023/12/23 00:55:52;;;;;;;9.52;0.70;;;8.80;99.90;;;;;;5039414;28;20475;-77
2023/12/23 00:58:18;;;;;;;14.60;1.35;;;8.80;99.90;;;;;;5037288;28;20044;-77
2023/12/23 01:00:44;;;;;;;8.48;0.65;;;8.70;99.90;;;;;;5034318;28;20037;-76
2023/12/23 01:03:09;;;;;;;12.20;1.15;;;8.80;99.90;;;;;;5039489;28;20040;-77
2023/12/23 01:05:35;;;;;;;17.50;1.17;;;8.70;99.90;;;;;;5036774;28;20045;-77
2023/12/23 01:08:01;;;;;;;14.38;1.40;;;8.70;99.90;;;;;;5036583;28;20061;-77
2023/12/23 01:10:27;;;;;;;9.93;0.98;;;8.70;99.90;;;;;;5035533;28;20040;-77
2023/12/23 01:12:53;;;;;;;14.80;1.38;;;8.70;99.90;;;;;;5033260;28;20029;-77
2023/12/23 01:15:19;;;;;;;10.80;1.05;;;8.80;99.90;;;;;;5035300;28;20040;-77
2023/12/23 01:17:45;;;;;;;15.93;1.33;;;8.70;99.90;;;;;;5034459;28;20500;-76
2023/12/23 01:20:11;;;;;;;15.05;1.20;;;8.70;99.90;;;;;;5034279;28;20079;-77
2023/12/23 01:22:37;;;;;;;8.43;1.15;;;8.70;99.90;;;;;;5035384;28;20022;-78
2023/12/23 01:25:03;;;;;;;15.00;1.13;;;8.70;99.90;;;;;;5034304;28;20425;-77
2023/12/23 01:27:29;;;;;;;15.23;1.27;;;8.70;99.90;;;;;;5033803;28;20029;-76
2023/12/23 01:29:55;;;;;;;11.63;1.05;;;8.70;99.90;;;;;;5033996;28;20325;-77
2023/12/23 01:32:21;;;;;;;16.70;1.60;;;8.70;99.90;;;;;;5033965;28;20041;-77
2023/12/23 01:34:47;;;;;;;17.65;1.33;;;8.70;99.90;;;;;;5032431;28;20025;-77
2023/12/23 01:37:13;;;;;;;16.30;1.50;;;8.70;99.90;;;;;;5034489;28;20052;-76
2023/12/23 01:39:39;;;;;;;11.63;1.48;;;8.70;99.90;;;;;;5041077;28;20029;-78
2023/12/23 01:42:05;;;;;;;15.65;1.33;;;8.70;99.90;;;;;;5041288;28;20097;-77
2023/12/23 01:44:30;;;;;;;16.77;1.52;;;8.70;99.90;;;;;;5039466;28;20068;-77
2023/12/23 01:46:58;;;;;;;16.48;1.20;;;8.70;99.90;;;;;;5034899;28;20045;-76
2023/12/23 01:49:26;;;;;;;12.88;1.60;;;8.70;99.90;;;;;;5019789;28;20038;-77
2023/12/23 01:51:54;;;;;;;14.15;1.40;;;8.70;99.90;;;;;;5034774;28;20036;-76
2023/12/23 01:54:21;;;;;;;9.75;0.70;;;8.70;99.90;;;;;;5034337;28;20025;-77
2023/12/23 01:56:48;;;;;;;9.73;1.08;;;8.70;99.90;;;;;;5036794;28;20487;-77
2023/12/23 01:59:16;;;;;;;11.68;1.52;;;8.70;99.90;;;;;;5035310;28;20440;-77
2023/12/23 02:01:43;;;;;;;10.23;0.88;;;8.70;99.90;;;;;;5033777;28;20021;-76
2023/12/23 02:04:09;;;;;;;14.02;1.40;;;8.70;99.90;;;;;;5032928;28;20079;-76
2023/12/23 02:06:35;;;;;;;11.38;0.70;;;8.70;99.90;;;;;;5032677;28;20053;-76
2023/12/23 02:09:02;;;;;;;8.45;0.93;;;8.80;99.90;;;;;;5031572;28;20032;-76
2023/12/23 02:11:54;;;;;;;13.20;1.15;;;8.70;99.90;;;;;;5032715;28;20112;-76
2023/12/23 02:14:31;;;;;;;12.48;1.00;;;8.80;99.90;;;;;;5033423;28;20021;-76
2023/12/23 02:16:57;;;;;;;14.90;1.08;;;8.80;99.90;;;;;;5033790;28;20342;-77
2023/12/23 02:19:22;;;;;;;9.48;1.00;;;8.80;99.90;;;;;;5033352;28;20030;-77
2023/12/23 02:21:48;;;;;;;10.88;0.82;;;8.90;99.90;;;;;;5033372;28;20029;-77
2023/12/23 02:24:14;;;;;;;10.20;1.00;;;8.90;99.90;;;;;;5033876;28;20374;-75
2023/12/23 02:26:43;;;;;;;11.95;0.85;;;8.90;99.90;;;;;;5032378;28;20113;-75
2023/12/23 02:29:09;;;;;;;12.38;0.90;;;8.90;99.90;;;;;;5032406;28;20033;-75
2023/12/23 02:31:35;;;;;;;9.57;0.90;;;8.90;99.90;;;;;;5032463;28;20026;-76
2023/12/23 02:34:01;;;;;;;7.57;0.70;;;8.90;99.90;;;;;;5033073;28;20498;-76
2023/12/23 02:36:27;;;;;;;7.53;0.40;;;8.90;99.90;;;;;;5033094;28;20425;-76
2023/12/23 02:38:52;;;;;;;9.55;0.70;;;8.90;99.90;;;;;;5032414;28;20037;-76
2023/12/23 02:41:18;;;;;;;7.97;0.73;;;8.80;99.90;;;;;;5032590;28;20043;-76
2023/12/23 02:43:44;;;;;;;9.13;1.13;;;8.80;99.90;;;;;;5032096;28;20059;-76
2023/12/23 02:46:09;;;;;;;9.55;1.20;;;8.80;99.90;;;;;;5033225;28;20404;-76
2023/12/23 02:48:35;;;;;;;9.30;1.20;;;8.80;99.90;;;;;;5032578;28;20091;-76
2023/12/23 02:51:00;;;;;;;9.27;0.98;;;8.80;99.90;;;;;;5031969;28;20083;-77
2023/12/23 02:53:26;;;;;;;8.45;0.80;;;8.80;99.90;;;;;;5032579;28;20430;-76
2023/12/23 02:55:52;;;;;;;9.05;0.95;;;8.70;99.90;;;;;;5031928;28;20037;-75
2023/12/23 02:58:17;;;;;;;9.70;1.10;;;8.70;99.90;;;;;;5031790;28;20057;-76
2023/12/23 03:00:43;;;;;;;9.43;0.73;;;8.70;99.90;;;;;;5033724;28;20033;-76
2023/12/23 03:03:08;;;;;;;8.45;1.15;;;8.80;99.90;;;;;;5036054;28;20468;-76
2023/12/23 03:05:34;;;;;;;7.72;0.98;;;8.80;99.90;;;;;;5035974;28;20333;-76
2023/12/23 03:08:00;;;;;;;11.00;0.82;;;8.80;99.90;;;;;;5036224;28;20033;-76
2023/12/23 03:10:25;;;;;;;8.05;1.35;;;8.80;99.90;;;;;;5036246;28;20112;-77
2023/12/23 03:12:51;;;;;;;4.78;1.17;;;8.80;99.90;;;;;;5039718;28;20450;-77
2023/12/23 03:15:17;;;;;;;6.38;1.50;;;8.80;99.90;;;;;;5041478;28;20363;-76
2023/12/23 03:17:42;;;;;;;10.95;2.08;;;8.70;99.90;;;;;;5037544;28;20165;-75
2023/12/23 03:20:09;;;;;;;9.88;2.30;;;8.70;99.90;;;;;;5038391;28;20042;-76
2023/12/23 03:22:35;;;;;;;9.60;2.88;;;8.70;99.90;;;;;;5020069;28;20049;-76
2023/12/23 03:25:00;;;;;;;6.10;2.00;;;8.80;99.90;;;;;;5038274;28;20444;-77
2023/12/23 03:27:26;;;;;;;9.40;2.90;;;8.80;99.90;;;;;;5042538;28;20487;-76
2023/12/23 03:29:52;;;;;;;8.65;2.22;;;8.80;99.90;;;;;;5042722;28;20029;-78
2023/12/23 03:32:17;;;;;;;8.35;2.72;;;8.80;99.90;;;;;;5042098;28;20030;-76
2023/12/23 03:34:43;;;;;;;12.50;2.45;;;8.90;99.90;;;;;;5040596;28;20030;-77
2023/12/23 03:37:09;;;;;;;8.55;2.72;;;8.90;99.90;;;;;;5037180;28;20535;-76
2023/12/23 03:39:35;;;;;;;10.20;2.17;;;9.00;99.90;;;;;;5036195;28;20033;-76
2023/12/23 03:42:00;;;;;;;10.27;2.25;;;9.00;99.90;;;;;;5037164;28;20522;-77
2023/12/23 03:44:26;;;;;;;8.90;3.22;;;9.10;99.90;;;;;;5041179;28;20038;-78
2023/12/23 03:46:52;;;;;;;10.00;2.42;;;9.10;99.90;;;;;;5040317;28;20491;-78
2023/12/23 03:49:17;;;;;;;14.13;2.67;;;9.10;99.90;;;;;;5039850;28;20533;-77
2023/12/23 03:51:43;;;;;;;14.43;2.42;;;9.20;99.90;;;;;;5041156;28;20349;-78
2023/12/23 03:54:09;;;;;;;10.00;2.10;;;9.20;99.90;;;;;;5039732;28;20483;-79
2023/12/23 03:56:34;;;;;;;18.73;2.70;;;9.20;99.90;;;;;;5039303;28;20037;-78
2023/12/23 03:59:00;;;;;;;10.38;1.42;;;9.30;99.90;;;;;;5021415;28;20156;-78
2023/12/23 04:01:26;;;;;;;16.88;2.20;;;9.30;99.90;;;;;;5038093;28;20029;-76
2023/12/23 04:03:52;;;;;;;19.55;2.17;;;9.30;99.90;;;;;;5035876;28;20041;-76
2023/12/23 04:06:17;;;;;;;13.73;2.22;;;9.30;99.90;;;;;;5037237;28;20060;-76
2023/12/23 04:08:43;;;;;;;14.20;1.60;;;9.30;99.90;;;;;;5037413;28;20061;-78
2023/12/23 04:11:09;;;;;;;11.43;1.50;;;9.40;99.90;;;;;;5037906;28;20094;-77
2023/12/23 04:13:36;;;;;;;13.10;0.98;;;9.50;99.90;;;;;;5039446;28;20034;-78
2023/12/23 04:16:03;;;;;;;12.20;1.30;;;9.50;99.90;;;;;;5035515;28;20025;-75
2023/12/23 04:18:29;;;;;;;12.40;1.75;;;9.50;99.90;;;;;;5035450;28;20080;-77
2023/12/23 04:20:55;;;;;;;14.55;1.77;;;9.50;99.90;;;;;;5036780;28;20025;-76
2023/12/23 04:23:20;;;;;;;21.02;1.75;;;9.50;99.90;;;;;;5036803;28;20036;-77
2023/12/23 04:25:46;;;;;;;15.30;1.20;;;9.60;99.90;;;;;;5037165;28;20042;-77
2023/12/23 04:28:12;;;;;;;13.05;1.77;;;9.50;99.90;;;;;;5040102;28;20420;-77
2023/12/23 04:30:38;;;;;;;14.05;1.60;;;9.60;99.90;;;;;;5038063;28;20029;-77
2023/12/23 04:33:04;;;;;;;10.75;1.13;;;9.60;99.90;;;;;;5037810;28;20044;-77
2023/12/23 04:35:29;;;;;;;10.73;0.93;;;9.70;99.90;;;;;;5037661;28;20033;-77
2023/12/23 04:37:55;;;;;;;8.80;1.23;;;9.70;99.90;;;;;;5036975;28;20437;-77
2023/12/23 04:40:21;;;;;;;13.75;1.67;;;9.70;99.90;;;;;;5040195;28;20036;-78
2023/12/23 04:42:47;;;;;;;16.60;2.00;;;9.70;99.90;;;;;;5044475;28;20171;-77
2023/12/23 04:45:12;;;;;;;18.58;2.08;;;9.70;99.90;;;;;;5034011;28;20116;-77
2023/12/23 04:47:38;;;;;;;12.40;1.58;;;9.70;99.90;;;;;;5035677;28;20033;-78
2023/12/23 04:50:05;;;;;;;11.88;1.17;;;9.70;99.90;;;;;;5034959;28;20025;-78
2023/12/23 04:52:30;;;;;;;10.25;1.33;;;9.70;99.90;;;;;;5033416;28;20025;-77
2023/12/23 04:54:59;;;;;;;15.73;2.20;;;9.60;99.90;;;;;;5034047;28;20040;-78
2023/12/23 04:57:26;;;;;;;15.38;2.17;;;9.70;99.90;;;;;;5034159;28;20040;-77
2023/12/23 04:59:51;;;;;;;11.68;1.20;;;9.60;99.90;;;;;;5032868;28;20112;-77
2023/12/23 05:02:17;;;;;;;14.20;1.30;;;9.60;99.90;;;;;;5034619;28;20060;-77
2023/12/23 05:04:46;;;;;;;10.23;1.92;;;9.70;99.90;;;;;;5036258;28;20044;-77
2023/12/23 05:07:11;;;;;;;8.15;1.10;;;9.60;99.90;;;;;;5034726;28;20499;-78
2023/12/23 05:09:37;;;;;;;18.42;1.63;;;9.70;99.90;;;;;;5043703;28;20041;-79
2023/12/23 05:12:03;;;;;;;9.85;1.35;;;9.70;99.90;;;;;;5025444;28;20045;-78
2023/12/23 05:14:29;;;;;;;12.35;1.25;;;9.70;99.90;;;;;;5041034;28;20056;-78
2023/12/23 05:16:54;;;;;;;13.10;1.30;;;9.70;99.90;;;;;;5038850;28;20029;-78
2023/12/23 05:19:20;;;;;;;12.20;1.40;;;9.70;99.90;;;;;;5032477;28;20032;-78
2023/12/23 05:21:46;;;;;;;9.77;1.00;;;9.80;99.90;;;;;;5034631;28;20120;-76
2023/12/23 05:24:12;;;;;;;13.23;1.15;;;9.80;99.90;;;;;;5044318;28;20125;-80
2023/12/23 05:26:38;;;;;;;10.63;1.23;;;9.80;99.90;;;;;;5038530;28;20037;-79
2023/12/23 05:29:03;;;;;;;15.13;1.40;;;9.80;99.90;;;;;;5038559;28;20068;-80
2023/12/23 05:31:29;;;;;;;10.48;1.27;;;9.80;99.90;;;;;;5040903;28;20033;-79
2023/12/23 05:33:56;;;;;;;14.63;1.65;;;9.80;99.90;;;;;;5048498;28;20017;-78
2023/12/23 05:36:22;;;;;;;12.88;1.60;;;9.90;99.90;;;;;;5041492;28;20048;-78
2023/12/23 05:38:48;;;;;;;14.30;1.90;;;9.90;99.90;;;;;;5036610;28;20085;-79
2023/12/23 05:41:14;;;;;;;15.57;2.00;;;9.90;99.90;;;;;;5041567;28;20036;-79
2023/12/23 05:43:39;;;;;;;16.98;1.27;;;9.90;99.90;;;;;;5042079;28;20026;-78
2023/12/23 05:46:05;;;;;;;9.65;1.30;;;9.90;99.90;;;;;;5036048;28;20037;-79
2023/12/23 05:48:31;;;;;;;23.23;2.08;;;9.90;99.90;;;;;;5037896;28;20037;-80
2023/12/23 05:50:56;;;;;;;12.10;2.38;;;9.90;99.90;;;;;;5033509;28;20477;-79
2023/12/23 05:53:22;;;;;;;11.27;1.58;;;9.90;99.90;;;;;;5033782;28;20029;-78
2023/12/23 05:55:48;;;;;;;14.73;1.52;;;9.90;99.90;;;;;;5034439;28;20034;-78
2023/12/23 05:58:14;;;;;;;14.93;1.40;;;9.90;99.90;;;;;;5033826;28;20037;-79
2023/12/23 06:00:39;;;;;;;16.45;1.60;;;9.80;99.90;;;;;;5018574;28;20083;-78
2023/12/23 06:03:05;;;;;;;14.75;2.30;;;9.80;99.90;;;;;;5034693;28;20040;-78
2023/12/23 06:05:31;;;;;;;13.50;1.42;;;9.80;99.90;;;;;;5034104;28;20341;-78
2023/12/23 06:07:58;;;;;;;15.25;1.73;;;9.80;99.90;;;;;;5033871;28;20390;-78
2023/12/23 06:10:24;;;;;;;15.52;1.55;;;9.80;99.90;;;;;;5036073;28;20037;-78
2023/12/23 06:12:50;;;;;;;11.18;1.52;;;9.70;99.90;;;;;;5035571;28;20137;-78
2023/12/23 06:15:15;;;;;;;10.75;1.00;;;9.80;99.90;;;;;;5035102;28;20456;-77
2023/12/23 06:17:41;;;;;;;13.10;1.98;;;9.70;99.90;;;;;;5033405;28;20037;-78
2023/12/23 06:20:07;;;;;;;14.57;1.58;;;9.70;99.90;;;;;;5036232;28;20123;-77
2023/12/23 06:22:33;;;;;;;11.18;1.10;;;9.70;99.90;;;;;;5036167;28;20037;-78
2023/12/23 06:24:58;;;;;;;10.80;1.33;;;9.70;99.90;;;;;;5033099;28;20534;-79
2023/12/23 06:27:24;;;;;;;18.63;2.95;;;9.70;99.90;;;;;;5035153;28;20041;-77
2023/12/23 06:29:49;;;;;;;14.10;1.67;;;9.80;99.90;;;;;;5032945;28;20092;-78
2023/12/23 06:32:15;;;;;;;10.95;1.70;;;9.70;99.90;;;;;;5034633;28;20056;-78
2023/12/23 06:34:41;;;;;;;11.52;1.35;;;9.70;99.90;;;;;;5034250;28;20023;-77
2023/12/23 06:37:06;;;;;;;14.20;1.77;;;9.70;99.90;;;;;;5036666;28;20398;-75
2023/12/23 06:39:32;;;;;;;17.98;1.60;;;9.80;99.90;;;;;;5035903;28;20494;-77
2023/12/23 06:41:57;;;;;;;17.13;2.28;;;9.80;99.90;;;;;;5036877;28;20034;-78
2023/12/23 06:44:23;;;;;;;11.02;1.80;;;9.70;99.90;;;;;;5035942;28;20455;-78
2023/12/23 06:46:49;;;;;;;13.73;1.70;;;9.70;99.90;;;;;;5036764;28;20368;-76
2023/12/23 06:49:15;;;;;;;15.43;2.10;;;9.70;99.90;;;;;;5035171;28;20107;-76
2023/12/23 06:51:41;;;;;;;14.23;1.88;;;9.70;99.90;;;;;;5035977;28;20029;-76
2023/12/23 06:54:06;;;;;;;20.50;2.47;;;9.80;99.90;;;;;;5037265;28;20060;-77
2023/12/23 06:56:32;;;;;;;15.60;1.42;;;9.80;99.90;;;;;;5039520;28;20037;-77
2023/12/23 06:58:59;;;;;;;15.85;1.48;;;9.70;99.90;;;;;;5039619;28;20111;-77
2023/12/23 07:01:25;;;;;;;15.25;1.60;;;9.80;99.90;;;;;;5041014;28;20033;-76
2023/12/23 07:03:51;;;;;;;13.80;1.58;;;9.80;99.90;;;;;;5037936;28;20045;-77
2023/12/23 07:06:17;;;;;;;18.80;1.52;;;9.70;99.90;;;;;;5036762;28;20065;-77
2023/12/23 07:08:42;;;;;;;13.00;1.50;;;9.80;99.90;;;;;;5036129;28;20029;-76
2023/12/23 07:11:11;;;;;;;11.95;1.55;;;9.70;99.90;;;;;;5036804;28;20030;-75
2023/12/23 07:13:37;;;;;;;14.63;2.08;;;9.70;99.90;;;;;;5036116;28;20030;-76
2023/12/23 07:16:02;;;;;;;18.65;1.90;;;9.80;99.90;;;;;;5035366;28;20045;-77
2023/12/23 07:18:28;;;;;;;10.88;1.75;;;9.80;99.90;;;;;;5035792;28;20115;-77
2023/12/23 07:20:54;;;;;;;16.35;1.45;;;9.80;99.90;;;;;;5036731;28;20037;-76
2023/12/23 07:23:22;;;;;;;17.88;2.22;;;9.80;99.90;;;;;;5036684;28;20037;-77
2023/12/23 07:25:47;;;;;;;11.65;1.58;;;9.80;99.90;;;;;;5036368;28;20033;-77
2023/12/23 07:28:13;;;;;;;13.07;1.80;;;9.80;99.90;;;;;;5036776;28;20034;-76
2023/12/23 07:30:44;;;;;;;10.38;1.50;;;9.90;99.90;;;;;;5038828;28;20395;-76
2023/12/23 07:33:13;;;;;;;13.70;1.25;;;9.90;99.90;;;;;;5020854;28;20060;-77
2023/12/23 07:35:38;;;;;;;13.88;1.58;;;9.90;99.90;;;;;;5040589;28;20028;-76
2023/12/23 07:38:05;;;;;;;12.57;1.85;;;10.00;99.90;;;;;;5035976;28;20030;-77
2023/12/23 07:40:31;;;;;;;13.35;1.45;;;10.00;99.90;;;;;;5034377;28;20065;-77
2023/12/23 07:42:57;;;;;;;19.50;1.60;;;10.00;99.90;;;;;;5035582;28;20064;-76
2023/12/23 07:45:23;;;;;;;16.02;1.40;;;10.00;99.90;;;;;;5036213;28;20056;-78
2023/12/23 07:47:49;;;;;;;13.25;1.67;;;10.00;99.90;;;;;;5037118;28;20477;-76
2023/12/23 07:50:14;;;;;;;13.52;1.75;;;10.10;99.90;;;;;;5036563;28;20041;-79
2023/12/23 07:52:40;;;;;;;14.88;1.52;;;10.10;99.90;;;;;;5019485;28;20036;-76
2023/12/23 07:55:07;;;;;;;12.30;1.67;;;10.10;99.90;;;;;;5036927;28;20136;-77
2023/12/23 07:57:32;;;;;;;13.48;1.35;;;10.10;99.90;;;;;;5036106;28;20033;-78
2023/12/23 07:59:58;;;;;;;11.65;1.83;;;10.20;99.90;;;;;;5036876;28;20432;-78
2023/12/23 08:02:24;;;;;;;18.63;2.22;;;10.20;99.90;;;;;;5038614;28;20051;-78
2023/12/23 08:04:49;;;;;;;13.95;1.35;;;10.20;99.90;;;;;;5038797;28;20037;-78
2023/12/23 08:07:15;;;;;;;14.50;1.90;;;10.20;99.90;;;;;;5040694;28;20053;-77
2023/12/23 08:09:40;;;;;;;11.20;1.15;;;10.20;99.90;;;;;;5043875;28;20124;-77
2023/12/23 08:12:07;;;;;;;13.52;1.48;;;10.20;99.90;;;;;;5042804;28;20038;-77
2023/12/23 08:14:33;;;;;;;10.50;1.67;;;10.20;99.90;;;;;;5043730;28;20094;-77
2023/12/23 08:16:59;;;;;;;16.27;1.77;;;10.20;99.90;;;;;;5041093;28;20049;-78
2023/12/23 08:19:25;;;;;;;10.85;1.48;;;10.20;99.90;;;;;;5041290;28;20459;-77
2023/12/23 08:21:50;;;;;;;15.20;2.10;;;10.30;99.90;;;;;;5038364;28;20460;-74
2023/12/23 08:24:16;;;;;;;13.88;1.60;;;10.30;99.90;;;;;;5034478;28;20029;-72
2023/12/23 08:26:42;;;;;;;8.98;1.05;;;10.30;99.90;;;;;;5016343;28;20463;-73
2023/12/23 08:29:07;;;;;;;14.90;1.30;;;10.40;99.90;;;;;;5034422;28;20032;-73
2023/12/23 08:31:33;;;;;;;12.60;1.73;;;10.40;99.90;;;;;;5034417;28;20021;-73
2023/12/23 08:33:59;;;;;;;12.68;1.42;;;10.40;99.90;;;;;;5034637;28;20025;-74
2023/12/23 08:36:24;;;;;;;21.75;1.80;;;10.40;99.90;;;;;;5034178;28;20033;-74
2023/12/23 08:38:50;;;;;;;11.82;1.70;;;10.40;99.90;;;;;;5033278;28;20029;-75
2023/12/23 08:41:16;;;;;;;9.55;1.20;;;10.40;99.90;;;;;;5034651;28;20037;-73
2023/12/23 08:43:42;;;;;;;13.13;1.40;;;10.50;99.90;;;;;;5016796;28;20036;-75
2023/12/23 08:46:08;;;;;;;11.23;1.50;;;10.50;99.90;;;;;;5032642;28;20459;-75
2023/12/23 08:48:33;;;;;;;11.57;1.02;;;10.50;99.90;;;;;;5035864;28;20030;-74
2023/12/23 08:50:59;;;;;;;13.25;1.60;;;10.50;99.90;;;;;;5033133;28;20036;-73
2023/12/23 08:53:25;;;;;;;15.90;1.27;;;10.50;99.90;;;;;;5033743;28;20041;-78
2023/12/23 08:55:50;;;;;;;11.88;1.17;;;10.50;99.90;;;;;;5033796;28;20037;-74
2023/12/23 08:58:16;;;;;;;11.52;1.02;;;10.50;99.90;;;;;;5032395;28;20033;-72
2023/12/23 09:00:41;;;;;;;11.90;1.17;;;10.50;99.90;;;;;;5032640;28;20367;-72
2023/12/23 09:03:07;;;;;;;12.27;1.65;;;10.60;99.90;;;;;;5032977;28;20021;-73
2023/12/23 09:05:33;;;;;;;8.88;1.08;;;10.60;99.90;;;;;;5033692;28;20034;-74
2023/12/23 09:07:58;;;;;;;11.52;1.23;;;10.60;99.90;;;;;;5034433;28;20105;-74
2023/12/23 09:10:24;;;;;;;12.05;1.33;;;10.70;99.90;;;;;;5032503;28;20116;-73
2023/12/23 09:12:50;;;;;;;7.95;1.00;;;10.60;99.90;;;;;;5032829;28;20220;-74
2023/12/23 09:15:15;;;;;;;10.55;0.90;;;10.60;99.90;;;;;;5034229;28;20393;-74
2023/12/23 09:17:41;;;;;;;6.65;0.85;;;10.60;99.90;;;;;;5034230;28;20032;-74
2023/12/23 09:20:10;;;;;;;13.70;1.60;;;10.60;99.90;;;;;;5034574;28;20048;-73
2023/12/23 09:22:36;;;;;;;10.50;1.10;;;10.70;99.90;;;;;;5017191;28;20029;-73
2023/12/23 09:25:01;;;;;;;10.40;1.17;;;10.70;99.90;;;;;;5033841;28;20052;-74
2023/12/23 09:27:28;;;;;;;9.00;1.02;;;10.70;99.90;;;;;;5033476;28;20033;-74
2023/12/23 09:29:55;;;;;;;10.65;1.80;;;10.70;99.90;;;;;;5032899;28;20092;-73
2023/12/23 09:32:21;;;;;;;6.88;0.80;;;10.70;99.90;;;;;;5033947;28;20026;-74
2023/12/23 09:34:49;;;;;;;7.63;0.90;;;10.70;99.90;;;;;;5034932;28;20032;-73
2023/12/23 09:37:14;;;;;;;7.63;0.90;;;10.70;99.90;;;;;;5034468;28;20044;-75
2023/12/23 09:39:40;;;;;;;9.18;1.10;;;10.70;99.90;;;;;;5033241;28;20029;-75
2023/12/23 09:42:06;;;;;;;10.38;1.55;;;10.70;99.90;;;;;;5032327;28;20044;-74
2023/12/23 09:44:32;;;;;;;9.82;1.27;;;10.70;99.90;;;;;;5033483;28;20038;-75
2023/12/23 09:46:58;;;;;;;9.90;0.77;;;10.70;99.90;;;;;;5033328;28;20033;-75
2023/12/23 09:49:24;;;;;;;11.77;0.90;;;10.70;99.90;;;;;;5033261;28;20053;-75
2023/12/23 09:51:50;;;;;;;9.85;1.40;;;10.70;99.90;;;;;;5033344;28;20494;-74
2023/12/23 09:54:20;;;;;;;9.65;1.30;;;10.70;99.90;;;;;;5015677;28;20475;-74
2023/12/23 09:56:48;;;;;;;8.07;0.95;;;10.70;99.90;;;;;;5033737;28;20383;-74
2023/12/23 09:59:14;;;;;;;10.38;1.13;;;10.70;99.90;;;;;;5032848;28;20127;-74
2023/12/23 10:01:40;;;;;;;9.25;1.90;;;10.70;99.90;;;;;;5033550;28;20048;-73
2023/12/23 10:04:05;;;;;;;13.02;1.15;;;10.70;99.90;;;;;;5034397;28;20030;-74
2023/12/23 10:06:31;;;;;;;10.52;1.27;;;10.70;99.90;;;;;;5031589;28;20100;-74
2023/12/23 10:08:57;;;;;;;10.45;2.03;;;10.70;99.90;;;;;;5036241;28;20029;-74
2023/12/23 10:11:24;;;;;;;15.73;2.10;;;10.70;99.90;;;;;;5032356;28;20029;-75
2023/12/23 10:13:51;;;;;;;14.00;1.50;;;10.70;99.90;;;;;;5032546;28;20032;-75
2023/12/23 10:16:16;;;;;;;11.00;1.35;;;10.70;99.90;;;;;;5038362;28;20033;-79
2023/12/23 10:18:42;;;;;;;9.95;1.08;;;10.70;99.90;;;;;;5035815;28;20332;-78
2023/12/23 10:21:08;;;;;;;12.02;1.50;;;10.70;99.90;;;;;;5037052;28;20040;-76
2023/12/23 10:23:34;;;;;;;8.75;1.50;;;10.80;99.90;;;;;;5039617;28;20052;-79
2023/12/23 10:26:01;;;;;;;14.98;1.50;;;10.80;99.90;;;;;;5036272;28;20076;-76
2023/12/23 10:28:27;;;;;;;10.23;1.42;;;10.80;99.90;;;;;;5037142;28;20080;-73
2023/12/23 10:31:01;;;;;;;16.52;1.63;;;10.80;99.90;;;;;;5031831;28;20030;-72
2023/12/23 10:33:30;;;;;;;10.80;1.35;;;10.80;99.90;;;;;;5032985;28;20037;-74
2023/12/23 10:35:58;;;;;;;14.88;1.90;;;10.80;99.90;;;;;;5031320;28;20044;-73
2023/12/23 10:38:26;;;;;;;13.15;1.40;;;10.80;99.90;;;;;;5032586;28;20255;-74
2023/12/23 10:41:03;;;;;;;8.50;1.02;;;10.80;99.90;;;;;;5031372;28;20030;-73
2023/12/23 10:43:29;;;;;;;9.90;1.08;;;10.80;99.90;;;;;;5032511;28;20104;-74
2023/12/23 10:45:57;;;;;;;6.57;1.00;;;10.80;99.90;;;;;;5032991;28;20038;-74
2023/12/23 10:48:23;;;;;;;9.40;1.15;;;10.80;99.90;;;;;;5032878;28;20029;-73
2023/12/23 10:50:51;;;;;;;11.80;0.98;;;10.80;99.90;;;;;;5032788;28;20112;-74
2023/12/23 10:53:17;;;;;;;14.35;2.15;;;10.80;99.90;;;;;;5032585;28;20048;-76
2023/12/23 10:55:47;;;;;;;15.25;3.03;;;10.80;99.90;;;;;;5032544;28;20117;-74
2023/12/23 10:58:13;;;;;;;12.73;1.20;;;10.80;99.90;;;;;;5032714;28;20056;-81
2023/12/23 11:00:39;;;;;;;11.27;1.23;;;10.80;99.90;;;;;;5032575;28;20065;-74
2023/12/23 11:03:07;;;;;;;8.98;1.20;;;10.80;99.90;;;;;;5031948;28;20029;-74
2023/12/23 11:05:34;;;;;;;10.20;1.38;;;10.80;99.90;;;;;;5030782;28;20476;-75
2023/12/23 11:08:02;;;;;;;12.23;1.27;;;10.80;99.90;;;;;;5033050;28;20053;-74
2023/12/23 11:10:30;;;;;;;14.18;1.17;;;10.80;99.90;;;;;;5032702;28;20041;-73
2023/12/23 11:12:57;;;;;;;9.63;1.17;;;10.90;99.90;;;;;;5032283;28;20470;-73
2023/12/23 11:15:24;;;;;;;14.30;1.38;;;10.90;99.90;;;;;;5032496;28;20029;-73
2023/12/23 11:17:50;;;;;;;13.90;1.13;;;10.90;99.90;;;;;;5032160;28;20087;-73
2023/12/23 11:20:35;;;;;;;9.23;1.23;;;10.90;99.90;;;;;;5032587;28;20045;-73
2023/12/23 11:23:30;;;;;;;11.57;1.02;;;10.90;99.90;;;;;;5035783;28;20029;-75
2023/12/23 11:25:56;;;;;;;7.10;1.02;;;11.00;99.90;;;;;;5034510;28;20030;-74
2023/12/23 11:28:24;;;;;;;8.60;1.00;;;10.90;99.90;;;;;;5036346;28;20025;-75
2023/12/23 11:31:03;;;;;;;15.15;1.80;;;11.00;99.90;;;;;;5035959;28;20047;-75
2023/12/23 11:33:36;;;;;;;8.02;0.93;;;11.00;99.90;;;;;;5035687;28;20022;-73
2023/12/23 11:36:02;;;;;;;9.50;0.85;;;11.00;99.90;;;;;;5034984;28;20375;-74
2023/12/23 11:38:29;;;;;;;12.23;1.17;;;11.00;99.90;;;;;;5035518;28;20057;-73
2023/12/23 11:40:55;;;;;;;14.30;1.08;;;11.00;99.90;;;;;;5035875;28;20040;-72
2023/12/23 11:43:22;;;;;;;7.63;1.50;;;11.10;99.90;;;;;;5034134;28;20033;-72
2023/12/23 11:45:49;;;;;;;11.27;1.05;;;11.10;99.90;;;;;;5034649;28;20387;-73
2023/12/23 11:48:18;;;;;;;8.18;0.80;;;11.20;99.90;;;;;;5035597;28;20468;-73
2023/12/23 11:50:43;;;;;;;8.02;0.60;;;11.20;99.90;;;;;;5035840;28;20025;-72
2023/12/23 11:53:10;;;;;;;10.38;1.08;;;11.20;99.90;;;;;;5035560;28;20345;-73
2023/12/23 11:55:36;;;;;;;6.65;0.70;;;11.20;99.90;;;;;;5035137;28;20079;-73
2023/12/23 11:58:02;;;;;;;10.10;0.70;;;11.20;99.90;;;;;;5035526;28;20045;-73
2023/12/23 12:00:31;;;;;;;9.18;0.55;;;11.20;99.90;;;;;;5035310;28;20052;-73
2023/12/23 12:02:57;;;;;;;6.10;0.38;;;11.30;99.90;;;;;;5035371;28;20529;-72
2023/12/23 12:05:24;;;;;;;5.93;0.65;;;11.30;99.90;;;;;;5035486;28;20080;-72
2023/12/23 12:07:50;;;;;;;9.73;0.63;;;11.30;99.90;;;;;;5036046;28;20039;-77
2023/12/23 12:10:16;;;;;;;7.57;0.68;;;11.30;99.90;;;;;;5036162;28;20037;-73
2023/12/23 12:12:42;;;;;;;6.22;0.40;;;11.40;99.90;;;;;;5033757;28;20471;-73
2023/12/23 12:15:08;;;;;;;8.07;0.77;;;11.40;99.90;;;;;;5033780;28;20113;-73
2023/12/23 12:17:33;;;;;;;8.32;0.47;;;11.40;99.90;;;;;;5035220;28;20041;-73
2023/12/23 12:20:00;;;;;;;8.05;0.57;;;11.40;99.90;;;;;;5035223;28;20033;-73
2023/12/23 12:22:26;;;;;;;4.30;0.40;;;11.40;99.90;;;;;;5035112;28;20037;-73
2023/12/23 12:24:51;;;;;;;5.32;0.70;;;11.40;99.90;;;;;;5035048;28;20345;-73
2023/12/23 12:27:18;;;;;;;7.80;0.60;;;11.40;99.90;;;;;;5034692;28;20035;-73
2023/12/23 12:29:43;;;;;;;5.38;0.60;;;11.40;99.90;;;;;;5033401;28;20029;-73
2023/12/23 12:32:13;;;;;;;4.78;0.82;;;11.40;99.90;;;;;;5034656;28;20036;-73
2023/12/23 12:34:38;;;;;;;6.55;0.80;;;11.40;99.90;;;;;;5033376;28;20419;-73
2023/12/23 12:37:04;;;;;;;7.35;0.70;;;11.40;99.90;;;;;;5034597;28;20080;-72
2023/12/23 12:39:30;;;;;;;9.43;0.68;;;11.50;99.90;;;;;;5034517;28;20029;-73